Terminal Aerodrome Forecast
Issued by NWS

Home | Current Version | Previous Version | Text Only | Print | Product List | Glossary On
Versions: 1 2 3 4 5 6 7 8 9 10 11 12 13 14 15 16 17 18 19 20 21 22 23 24
000
FTUS43 KILX 211700
TAFCMI
TAF
KCMI 211738Z 2118/2218 17012KT P6SM BKN025
     FM212000 17012KT P6SM SCT025 BKN250
     FM220700 15010KT P6SM OVC050
     FM221600 14012KT 3SM -RA BR OVC008=

USA.gov is the U.S. government's official web portal to all federal, state and local government web resources and services.